Indianapolis, Indiana
Traffic Map
Current Weather Conditions
Indianapolis, Indiana
Scattered Clouds
Scattered Clouds
64°
Feels Like: 64°
Wind Chill: 64° Ceiling: Unl
Heat Index: 64° Visibility: 10mi
Dew Point: 58° Wind: 12mph
Humidity: 80% Direction: 320° (NW)
Pressure: 29.86in Gusts: 0mph
Raw Report DataKIND 280754Z 32010KT 10SM FEW033 SCT060 18/14 A2986 RMK AO2 SLP105 T01780144 $
Traffic Incident Summary
Active as of:
Severity:
Category:
InformationThere was an issue retrieving the traffic information for this location. Please try a different location or try again shortly.
Advertisements
Track Severe Weather on mobile